createdAt,value
2022-08-31T00:00:43.322Z,1001.86
2022-08-31T00:01:43.400Z,1001.83
2022-08-31T00:02:43.321Z,1001.89
2022-08-31T00:03:43.315Z,1001.84
2022-08-31T00:04:43.337Z,1001.87
2022-08-31T00:05:43.277Z,1001.84
2022-08-31T00:06:43.301Z,1001.90
2022-08-31T00:07:43.271Z,1001.88
2022-08-31T00:08:43.258Z,1001.93
2022-08-31T00:09:43.251Z,1001.96
2022-08-31T00:10:43.622Z,1001.92
2022-08-31T00:11:43.270Z,1001.90
2022-08-31T00:12:43.215Z,1001.92
2022-08-31T00:13:44.213Z,1001.93
2022-08-31T00:14:43.207Z,1001.91
2022-08-31T00:15:43.216Z,1001.94
2022-08-31T00:16:43.311Z,1001.89
2022-08-31T00:17:43.181Z,1001.78
2022-08-31T00:18:43.175Z,1001.90
2022-08-31T00:19:43.170Z,1001.85
2022-08-31T00:20:43.159Z,1001.82
2022-08-31T00:21:43.180Z,1001.80
2022-08-31T00:22:43.141Z,1001.88
2022-08-31T00:23:43.139Z,1001.86
2022-08-31T00:24:43.126Z,1001.89
2022-08-31T00:25:43.118Z,1001.85
2022-08-31T00:26:43.145Z,1001.90
2022-08-31T00:27:43.099Z,1001.91
2022-08-31T00:28:43.088Z,1001.89
2022-08-31T00:29:43.082Z,1001.92
2022-08-31T00:30:43.078Z,1001.98
2022-08-31T00:31:43.209Z,1001.86
2022-08-31T00:32:43.063Z,1001.95
2022-08-31T00:33:43.051Z,1001.86
2022-08-31T00:34:43.041Z,1001.91
2022-08-31T00:35:43.031Z,1001.92
2022-08-31T00:36:43.053Z,1001.92
2022-08-31T00:37:43.009Z,1001.92
2022-08-31T00:38:43.007Z,1001.85
2022-08-31T00:39:42.996Z,1001.99
2022-08-31T00:40:44.943Z,1001.94
2022-08-31T00:41:43.012Z,1001.97
2022-08-31T00:42:42.970Z,1001.98
2022-08-31T00:43:42.966Z,1001.90
2022-08-31T00:44:42.957Z,1001.93
2022-08-31T00:45:43.021Z,1001.99
2022-08-31T00:46:42.974Z,1001.96
2022-08-31T00:47:43.098Z,1002.06
2022-08-31T00:48:42.919Z,1002.01
2022-08-31T00:49:42.909Z,1002.02
2022-08-31T00:50:42.898Z,1002.06
2022-08-31T00:51:42.936Z,1002.04
2022-08-31T00:52:42.892Z,1002.04
2022-08-31T00:53:42.883Z,1002.13
2022-08-31T00:54:42.869Z,1002.06
2022-08-31T00:55:42.873Z,1002.07
2022-08-31T00:56:42.875Z,1002.09
2022-08-31T00:57:42.885Z,1002.08
2022-08-31T00:58:42.838Z,1002.02
2022-08-31T00:59:42.827Z,1002.07
2022-08-31T01:00:42.864Z,1002.08
2022-08-31T01:01:42.847Z,1002.01
2022-08-31T01:02:42.831Z,1002.09
2022-08-31T01:03:42.795Z,1002.04
2022-08-31T01:04:42.788Z,1002.02
2022-08-31T01:05:42.783Z,1002.06
2022-08-31T01:06:42.770Z,1002.06
2022-08-31T01:07:42.804Z,1002.04
2022-08-31T01:08:42.755Z,1002.06
2022-08-31T01:09:52.694Z,1002.11
2022-08-31T01:10:43.736Z,1002.04
2022-08-31T01:11:42.732Z,1002.10
2022-08-31T01:12:42.749Z,1002.10
2022-08-31T01:13:42.712Z,1002.05
2022-08-31T01:14:42.709Z,1002.10
2022-08-31T01:15:42.740Z,1002.05
2022-08-31T01:16:42.790Z,1002.07
2022-08-31T01:17:42.708Z,1002.07
2022-08-31T01:18:42.714Z,1002.07
2022-08-31T01:19:42.666Z,1002.05
2022-08-31T01:20:42.718Z,1002.06
2022-08-31T01:21:43.649Z,1002.08
2022-08-31T01:22:42.666Z,1002.11
2022-08-31T01:23:42.634Z,1002.12
2022-08-31T01:24:42.623Z,1002.05
2022-08-31T01:25:42.613Z,1002.11
2022-08-31T01:26:42.604Z,1002.11
2022-08-31T01:27:43.633Z,1002.14
2022-08-31T01:28:42.588Z,1002.07
2022-08-31T01:29:42.584Z,1002.05
2022-08-31T01:30:42.607Z,1002.03
2022-08-31T01:31:42.635Z,1002.04
2022-08-31T01:32:42.583Z,1002.01
2022-08-31T01:33:42.546Z,1002.04
2022-08-31T01:34:42.550Z,1002.08
2022-08-31T01:35:42.595Z,1002.05
2022-08-31T01:36:42.548Z,1002.10
2022-08-31T01:37:42.603Z,1002.09
2022-08-31T01:38:42.517Z,1002.12
2022-08-31T01:39:42.509Z,1002.06
2022-08-31T01:40:42.573Z,1002.07
2022-08-31T01:41:42.491Z,1002.07
2022-08-31T01:42:42.516Z,1002.15
2022-08-31T01:43:42.496Z,1002.05
2022-08-31T01:44:42.482Z,1002.01
2022-08-31T01:45:42.461Z,1002.09
2022-08-31T01:46:42.522Z,1001.97
2022-08-31T01:47:42.470Z,1002.02
2022-08-31T01:48:42.430Z,1002.03
2022-08-31T01:49:42.421Z,1002.03
2022-08-31T01:50:42.416Z,1002.06
2022-08-31T01:51:42.414Z,1002.04
2022-08-31T01:52:42.452Z,1002.01
2022-08-31T01:53:42.662Z,1002.08
2022-08-31T01:54:42.383Z,1002.07
2022-08-31T01:55:42.385Z,1002.00
2022-08-31T01:56:42.370Z,1002.03
2022-08-31T01:57:42.393Z,1002.07
2022-08-31T01:58:42.386Z,1002.01
2022-08-31T01:59:42.347Z,1002.03
2022-08-31T02:00:42.367Z,1002.02
2022-08-31T02:01:42.454Z,1002.06
2022-08-31T02:02:43.142Z,1002.05
2022-08-31T02:03:42.317Z,1002.06
2022-08-31T02:04:42.302Z,1002.04
2022-08-31T02:05:42.299Z,1002.01
2022-08-31T02:06:42.298Z,1002.04
2022-08-31T02:07:42.316Z,1002.04
2022-08-31T02:08:42.273Z,1001.97
2022-08-31T02:09:42.409Z,1002.00
2022-08-31T02:10:42.282Z,1002.00
2022-08-31T02:11:42.249Z,1001.97
2022-08-31T02:12:42.270Z,1001.98
2022-08-31T02:13:42.229Z,1001.98
2022-08-31T02:14:42.224Z,1001.95
2022-08-31T02:15:42.219Z,1001.99
2022-08-31T02:16:42.234Z,1002.00
2022-08-31T02:17:42.234Z,1001.98
2022-08-31T02:18:42.196Z,1001.96
2022-08-31T02:19:42.217Z,1002.01
2022-08-31T02:20:42.181Z,1002.01
2022-08-31T02:21:42.170Z,1002.01
2022-08-31T02:22:42.187Z,1001.97
2022-08-31T02:23:42.155Z,1001.98
2022-08-31T02:24:42.143Z,1001.99
2022-08-31T02:25:42.141Z,1001.93
2022-08-31T02:26:42.131Z,1001.96
2022-08-31T02:27:42.160Z,1002.02
2022-08-31T02:28:42.111Z,1001.96
2022-08-31T02:29:42.110Z,1001.94
2022-08-31T02:30:42.095Z,1001.96
2022-08-31T02:31:42.133Z,1001.96
2022-08-31T02:32:42.119Z,1001.91
2022-08-31T02:33:42.068Z,1001.95
2022-08-31T02:34:42.284Z,1001.97
2022-08-31T02:35:42.105Z,1001.96
2022-08-31T02:36:42.038Z,1001.89
2022-08-31T02:37:42.028Z,1001.90
2022-08-31T02:38:42.065Z,1001.86
2022-08-31T02:39:42.017Z,1001.93
2022-08-31T02:40:42.036Z,1001.94
2022-08-31T02:41:42.001Z,1001.82
2022-08-31T02:42:53.315Z,1001.86
2022-08-31T02:43:43.056Z,1001.87
2022-08-31T02:44:41.976Z,1001.92
2022-08-31T02:45:41.973Z,1001.91
2022-08-31T02:46:41.986Z,1001.89
2022-08-31T02:47:41.951Z,1001.88
2022-08-31T02:48:41.970Z,1001.89
2022-08-31T02:49:41.943Z,1001.90
2022-08-31T02:50:41.927Z,1001.78
2022-08-31T02:51:41.914Z,1001.83
2022-08-31T02:52:41.908Z,1001.84
2022-08-31T02:53:41.932Z,1001.83
2022-08-31T02:54:41.896Z,1001.83
2022-08-31T02:55:41.884Z,1001.86
2022-08-31T02:56:41.877Z,1001.86
2022-08-31T02:57:42.124Z,1001.90
2022-08-31T02:58:41.892Z,1001.88
2022-08-31T02:59:41.863Z,1001.85
2022-08-31T03:00:41.842Z,1001.89
2022-08-31T03:01:41.863Z,1001.84
2022-08-31T03:02:41.842Z,1001.92
2022-08-31T03:03:46.485Z,1001.89
2022-08-31T03:04:42.828Z,1001.91
2022-08-31T03:05:41.808Z,1001.95
2022-08-31T03:06:41.802Z,1001.81
2022-08-31T03:07:41.791Z,1001.92
2022-08-31T03:08:41.813Z,1001.93
2022-08-31T03:09:41.773Z,1001.85
2022-08-31T03:10:41.755Z,1001.87
2022-08-31T03:11:41.756Z,1001.91
2022-08-31T03:12:41.778Z,1001.94
2022-08-31T03:13:41.771Z,1001.91
2022-08-31T03:14:41.729Z,1001.92
2022-08-31T03:15:41.763Z,1001.87
2022-08-31T03:16:41.732Z,1001.83
2022-08-31T03:17:41.711Z,1001.83
2022-08-31T03:18:41.806Z,1001.81
2022-08-31T03:19:41.751Z,1001.84
2022-08-31T03:20:41.686Z,1001.85
2022-08-31T03:21:41.675Z,1001.77
2022-08-31T03:22:43.583Z,1001.84
2022-08-31T03:23:41.686Z,1001.77
2022-08-31T03:24:41.652Z,1001.80
2022-08-31T03:25:41.626Z,1001.79
2022-08-31T03:26:42.634Z,1001.82
2022-08-31T03:27:41.623Z,1001.81
2022-08-31T03:28:41.643Z,1001.80
2022-08-31T03:29:41.604Z,1001.85
2022-08-31T03:30:41.618Z,1001.86
2022-08-31T03:31:41.598Z,1001.90
2022-08-31T03:32:41.583Z,1001.89
2022-08-31T03:33:41.607Z,1001.86
2022-08-31T03:34:41.563Z,1001.85
2022-08-31T03:35:41.560Z,1001.86
2022-08-31T03:36:41.571Z,1001.83
2022-08-31T03:37:41.548Z,1001.84
2022-08-31T03:38:41.729Z,1001.83
2022-08-31T03:39:41.530Z,1001.86
2022-08-31T03:40:41.555Z,1001.84
2022-08-31T03:41:41.524Z,1001.85
2022-08-31T03:42:41.538Z,1001.86
2022-08-31T03:43:41.522Z,1001.89
2022-08-31T03:44:41.492Z,1001.86
2022-08-31T03:45:41.480Z,1001.90
2022-08-31T03:46:41.506Z,1001.88
2022-08-31T03:47:42.763Z,1001.94
2022-08-31T03:48:41.487Z,1001.90
2022-08-31T03:49:41.461Z,1001.92
2022-08-31T03:50:41.441Z,1001.98
2022-08-31T03:51:41.431Z,1002.00
2022-08-31T03:52:41.424Z,1001.91
2022-08-31T03:53:41.442Z,1001.97
2022-08-31T03:54:41.403Z,1001.95
2022-08-31T03:55:41.391Z,1001.92
2022-08-31T03:56:41.392Z,1001.94
2022-08-31T03:57:41.381Z,1001.95
2022-08-31T03:58:41.402Z,1002.00
2022-08-31T03:59:41.365Z,1001.98
2022-08-31T04:00:41.349Z,1001.99
2022-08-31T04:01:41.380Z,1002.01
2022-08-31T04:02:41.385Z,1002.06
2022-08-31T04:03:41.360Z,1002.10
2022-08-31T04:04:41.313Z,1002.05
2022-08-31T04:05:41.314Z,1002.09
2022-08-31T04:06:41.310Z,1002.07
2022-08-31T04:07:42.346Z,1002.12
2022-08-31T04:08:41.315Z,1002.07
2022-08-31T04:09:41.280Z,1002.12
2022-08-31T04:10:41.267Z,1002.16
2022-08-31T04:11:45.500Z,1002.18
2022-08-31T04:12:41.252Z,1002.24
2022-08-31T04:13:41.270Z,1002.14
2022-08-31T04:14:41.232Z,1002.21
2022-08-31T04:15:41.265Z,1002.20
2022-08-31T04:16:41.281Z,1002.21
2022-08-31T04:17:41.209Z,1002.18
2022-08-31T04:18:41.238Z,1002.16
2022-08-31T04:19:41.198Z,1002.14
2022-08-31T04:20:41.179Z,1002.09
2022-08-31T04:21:41.275Z,1002.11
2022-08-31T04:22:41.167Z,1002.17
2022-08-31T04:23:41.193Z,1002.14
2022-08-31T04:24:41.155Z,1002.16
2022-08-31T04:25:41.142Z,1002.18
2022-08-31T04:26:41.138Z,1002.21
2022-08-31T04:27:41.125Z,1002.16
2022-08-31T04:28:41.149Z,1002.19
2022-08-31T04:29:41.107Z,1002.17
2022-08-31T04:30:41.182Z,1002.15
2022-08-31T04:31:41.099Z,1002.19
2022-08-31T04:32:41.084Z,1002.15
2022-08-31T04:33:41.075Z,1002.09
2022-08-31T04:34:41.101Z,1002.09
2022-08-31T04:35:41.062Z,1002.07
2022-08-31T04:36:41.054Z,1002.07
2022-08-31T04:37:45.843Z,1002.15
2022-08-31T04:38:43.074Z,1002.17
2022-08-31T04:39:50.672Z,1002.15
2022-08-31T04:40:42.083Z,1002.11
2022-08-31T04:41:41.012Z,1002.20
2022-08-31T04:42:41.003Z,1002.25
2022-08-31T04:43:41.002Z,1002.25
2022-08-31T04:44:41.018Z,1002.23
2022-08-31T04:45:41.006Z,1002.22
2022-08-31T04:46:40.980Z,1002.17
2022-08-31T04:47:40.965Z,1002.22
2022-08-31T04:48:40.955Z,1002.18
2022-08-31T04:49:40.971Z,1002.19
2022-08-31T04:50:42.832Z,1002.25
2022-08-31T04:51:41.933Z,1002.28
2022-08-31T04:52:40.914Z,1002.22
2022-08-31T04:53:40.945Z,1002.21
2022-08-31T04:54:40.939Z,1002.20
2022-08-31T04:55:40.920Z,1002.27
2022-08-31T04:56:40.884Z,1002.24
2022-08-31T04:57:40.876Z,1002.27
2022-08-31T04:58:40.903Z,1002.28
2022-08-31T04:59:40.861Z,1002.26
2022-08-31T05:00:40.867Z,1002.31
2022-08-31T05:01:43.275Z,1002.31
2022-08-31T05:02:40.891Z,1002.34
2022-08-31T05:03:40.858Z,1002.27
2022-08-31T05:04:40.824Z,1002.30
2022-08-31T05:05:40.815Z,1002.40
2022-08-31T05:06:40.813Z,1002.38
2022-08-31T05:07:40.812Z,1002.39
2022-08-31T05:08:40.823Z,1002.43
2022-08-31T05:09:40.787Z,1002.40
2022-08-31T05:10:40.783Z,1002.42
2022-08-31T05:11:40.765Z,1002.41
2022-08-31T05:12:40.762Z,1002.38
2022-08-31T05:13:40.847Z,1002.36
2022-08-31T05:14:40.739Z,1002.39
2022-08-31T05:15:40.748Z,1002.43
2022-08-31T05:16:40.723Z,1002.37
2022-08-31T05:17:40.713Z,1002.36
2022-08-31T05:18:40.742Z,1002.30
2022-08-31T05:19:41.366Z,1002.39
2022-08-31T05:20:41.685Z,1002.32
2022-08-31T05:21:40.683Z,1002.33
2022-08-31T05:22:40.671Z,1002.34
2022-08-31T05:23:40.712Z,1002.38
2022-08-31T05:24:40.661Z,1002.43
2022-08-31T05:25:40.655Z,1002.42
2022-08-31T05:26:42.149Z,1002.45
2022-08-31T05:27:40.631Z,1002.48
2022-08-31T05:28:40.619Z,1002.48
2022-08-31T05:29:40.640Z,1002.53
2022-08-31T05:30:40.622Z,1002.49
2022-08-31T05:31:40.596Z,1002.51
2022-08-31T05:32:40.594Z,1002.51
2022-08-31T05:33:40.575Z,1002.49
2022-08-31T05:34:40.606Z,1002.50
2022-08-31T05:35:40.558Z,1002.50
2022-08-31T05:36:40.560Z,1002.53
2022-08-31T05:37:40.545Z,1002.55
2022-08-31T05:38:40.533Z,1002.50
2022-08-31T05:39:40.561Z,1002.50
2022-08-31T05:40:40.601Z,1002.50
2022-08-31T05:41:40.514Z,1002.50
2022-08-31T05:42:40.500Z,1002.56
2022-08-31T05:43:40.502Z,1002.53
2022-08-31T05:44:40.519Z,1002.57
2022-08-31T05:45:40.479Z,1002.61
2022-08-31T05:46:40.577Z,1002.57
2022-08-31T05:47:40.462Z,1002.58
2022-08-31T05:48:40.637Z,1002.59
2022-08-31T05:49:41.009Z,1002.59
2022-08-31T05:50:40.459Z,1002.58
2022-08-31T05:51:40.424Z,1002.56
2022-08-31T05:52:40.417Z,1002.63
2022-08-31T05:53:40.408Z,1002.61
2022-08-31T05:54:40.438Z,1002.62
2022-08-31T05:55:40.397Z,1002.61
2022-08-31T05:56:40.388Z,1002.65
2022-08-31T05:57:40.383Z,1002.64
2022-08-31T05:58:40.420Z,1002.72
2022-08-31T05:59:40.394Z,1002.68
2022-08-31T06:00:40.351Z,1002.63
2022-08-31T06:01:40.392Z,1002.72
2022-08-31T06:02:40.340Z,1002.73
2022-08-31T06:03:40.335Z,1002.75
2022-08-31T06:04:40.344Z,1002.74
2022-08-31T06:05:40.339Z,1002.79
2022-08-31T06:06:40.303Z,1002.82
2022-08-31T06:07:40.295Z,1002.80
2022-08-31T06:08:40.288Z,1002.88
2022-08-31T06:09:40.838Z,1002.84
2022-08-31T06:10:40.270Z,1002.84
2022-08-31T06:11:40.259Z,1002.90
2022-08-31T06:12:40.249Z,1002.87
2022-08-31T06:13:40.249Z,1002.86
2022-08-31T06:14:40.850Z,1002.89
2022-08-31T06:15:42.589Z,1002.91
2022-08-31T06:16:40.281Z,1002.90
2022-08-31T06:17:40.255Z,1002.88
2022-08-31T06:18:40.201Z,1002.91
2022-08-31T06:19:40.222Z,1002.84
2022-08-31T06:20:40.186Z,1002.89
2022-08-31T06:21:50.443Z,1002.91
2022-08-31T06:22:41.191Z,1002.91
2022-08-31T06:23:40.161Z,1002.89
2022-08-31T06:24:40.186Z,1002.93
2022-08-31T06:25:40.144Z,1002.91
2022-08-31T06:26:40.147Z,1002.94
2022-08-31T06:27:40.127Z,1002.93
2022-08-31T06:28:40.115Z,1002.96
2022-08-31T06:29:40.187Z,1002.99
2022-08-31T06:30:54.436Z,1003.01
2022-08-31T06:31:42.166Z,1002.98
2022-08-31T06:32:41.087Z,1003.03
2022-08-31T06:33:40.075Z,1003.00
2022-08-31T06:34:40.105Z,1003.04
2022-08-31T06:35:40.063Z,1003.09
2022-08-31T06:36:40.049Z,1003.04
2022-08-31T06:37:40.040Z,1003.06
2022-08-31T06:38:40.040Z,1003.05
2022-08-31T06:39:40.059Z,1003.05
2022-08-31T06:40:40.141Z,1003.06
2022-08-31T06:41:40.015Z,1003.04
2022-08-31T06:42:40.013Z,1003.06
2022-08-31T06:43:39.993Z,1003.04
2022-08-31T06:44:40.027Z,1003.09
2022-08-31T06:45:39.992Z,1003.02
2022-08-31T06:46:40.021Z,1003.05
2022-08-31T06:47:39.967Z,1003.02
2022-08-31T06:48:39.954Z,1003.06
2022-08-31T06:49:39.985Z,1003.03
2022-08-31T06:50:39.941Z,1003.07
2022-08-31T06:51:39.935Z,1003.07
2022-08-31T06:52:39.930Z,1003.06
2022-08-31T06:53:39.916Z,1003.10
2022-08-31T06:54:39.943Z,1003.04
2022-08-31T06:55:39.931Z,1003.11
2022-08-31T06:56:39.898Z,1003.04
2022-08-31T06:57:39.892Z,1003.09
2022-08-31T06:58:39.877Z,1003.12
2022-08-31T06:59:39.896Z,1003.13
2022-08-31T07:00:39.860Z,1003.03
2022-08-31T07:01:39.934Z,1003.11
2022-08-31T07:02:39.876Z,1003.09
2022-08-31T07:03:39.837Z,1003.10
2022-08-31T07:04:39.877Z,1003.16
2022-08-31T07:05:39.830Z,1003.22
2022-08-31T07:06:39.823Z,1003.12
2022-08-31T07:07:39.802Z,1003.16
2022-08-31T07:08:39.788Z,1003.21
2022-08-31T07:09:39.816Z,1003.06
2022-08-31T07:10:39.779Z,1003.11
2022-08-31T07:11:43.691Z,1003.12
2022-08-31T07:12:40.756Z,1003.16
2022-08-31T07:13:39.753Z,1003.12
2022-08-31T07:14:39.774Z,1003.14
2022-08-31T07:15:39.743Z,1003.18
2022-08-31T07:16:39.765Z,1003.17
2022-08-31T07:17:39.724Z,1003.21
2022-08-31T07:18:39.707Z,1003.15
2022-08-31T07:19:44.782Z,1003.20
2022-08-31T07:20:40.693Z,1003.17
2022-08-31T07:21:39.684Z,1003.18
2022-08-31T07:22:39.678Z,1003.16
2022-08-31T07:23:39.668Z,1003.21
2022-08-31T07:24:39.692Z,1003.21
2022-08-31T07:25:39.659Z,1003.19
2022-08-31T07:26:39.652Z,1003.28
2022-08-31T07:27:39.644Z,1003.32
2022-08-31T07:28:39.630Z,1003.22
2022-08-31T07:29:39.662Z,1003.29
2022-08-31T07:30:39.657Z,1003.30
2022-08-31T07:31:39.613Z,1003.29
2022-08-31T07:32:39.594Z,1003.35
2022-08-31T07:33:39.589Z,1003.30
2022-08-31T07:34:39.612Z,1003.26
2022-08-31T07:35:39.566Z,1003.27
2022-08-31T07:36:39.572Z,1003.33
2022-08-31T07:37:39.558Z,1003.32
2022-08-31T07:38:39.547Z,1003.28
2022-08-31T07:39:39.572Z,1003.31
2022-08-31T07:40:39.604Z,1003.30
2022-08-31T07:41:39.525Z,1003.27
2022-08-31T07:42:39.512Z,1003.32
2022-08-31T07:43:39.508Z,1003.26
2022-08-31T07:44:39.526Z,1003.22
2022-08-31T07:45:39.678Z,1003.24
2022-08-31T07:46:39.481Z,1003.21
2022-08-31T07:47:39.465Z,1003.20
2022-08-31T07:48:39.471Z,1003.24
2022-08-31T07:49:39.456Z,1003.22
2022-08-31T07:50:39.469Z,1003.23
2022-08-31T07:51:39.435Z,1003.24
2022-08-31T07:52:39.428Z,1003.28
2022-08-31T07:53:39.426Z,1003.20
2022-08-31T07:54:39.408Z,1003.22
2022-08-31T07:55:39.429Z,1003.18
2022-08-31T07:56:39.396Z,1003.22
2022-08-31T07:57:39.383Z,1003.25
2022-08-31T07:58:39.374Z,1003.21
2022-08-31T07:59:39.369Z,1003.18
2022-08-31T08:00:39.382Z,1003.27
2022-08-31T08:01:39.381Z,1003.34
2022-08-31T08:02:39.391Z,1003.24
2022-08-31T08:03:39.329Z,1003.26
2022-08-31T08:04:39.325Z,1003.26
2022-08-31T08:05:39.353Z,1003.29
2022-08-31T08:06:39.336Z,1003.22
2022-08-31T08:07:39.297Z,1003.31
2022-08-31T08:08:39.292Z,1003.28
2022-08-31T08:09:39.272Z,1003.25
2022-08-31T08:10:39.300Z,1003.28
2022-08-31T08:11:39.259Z,1003.25
2022-08-31T08:12:39.254Z,1003.26
2022-08-31T08:13:39.251Z,1003.25
2022-08-31T08:14:39.243Z,1003.28
2022-08-31T08:15:40.685Z,1003.30
2022-08-31T08:16:39.319Z,1003.29
2022-08-31T08:17:39.210Z,1003.31
2022-08-31T08:18:39.206Z,1003.34
2022-08-31T08:19:39.200Z,1003.36
2022-08-31T08:20:39.400Z,1003.33
2022-08-31T08:21:39.174Z,1003.36
2022-08-31T08:22:51.588Z,1003.32
2022-08-31T08:23:41.168Z,1003.33
2022-08-31T08:24:39.157Z,1003.39
2022-08-31T08:25:39.177Z,1003.36
2022-08-31T08:26:39.132Z,1003.35
2022-08-31T08:27:39.125Z,1003.37
2022-08-31T08:28:40.560Z,1003.40
2022-08-31T08:29:40.111Z,1003.41
2022-08-31T08:30:39.125Z,1003.33
2022-08-31T08:31:39.180Z,1003.38
2022-08-31T08:32:39.082Z,1003.43
2022-08-31T08:33:39.078Z,1003.37
2022-08-31T08:34:39.071Z,1003.37
2022-08-31T08:35:39.095Z,1003.41
2022-08-31T08:36:39.057Z,1003.37
2022-08-31T08:37:57.393Z,1003.44
2022-08-31T08:38:41.042Z,1003.47
2022-08-31T08:39:39.030Z,1003.49
2022-08-31T08:40:39.135Z,1003.37
2022-08-31T08:41:39.015Z,1003.38
2022-08-31T08:42:39.001Z,1003.46
2022-08-31T08:43:38.994Z,1003.41
2022-08-31T08:44:38.994Z,1003.45
2022-08-31T08:45:39.049Z,1003.41
2022-08-31T08:46:39.030Z,1003.40
2022-08-31T08:47:39.343Z,1003.38
2022-08-31T08:48:38.962Z,1003.48
2022-08-31T08:49:38.946Z,1003.40
2022-08-31T08:50:38.973Z,1003.38
2022-08-31T08:51:38.941Z,1003.32
2022-08-31T08:52:38.921Z,1003.48
2022-08-31T08:53:38.916Z,1003.36
2022-08-31T08:54:38.959Z,1003.36
2022-08-31T08:55:38.947Z,1003.45
2022-08-31T08:56:38.896Z,1003.48
2022-08-31T08:57:38.888Z,1003.44
2022-08-31T08:58:38.877Z,1003.46
2022-08-31T08:59:38.877Z,1003.43
2022-08-31T09:00:38.930Z,1003.50
2022-08-31T09:01:38.910Z,1003.49
2022-08-31T09:02:38.941Z,1003.49
2022-08-31T09:03:38.831Z,1003.54
2022-08-31T09:04:38.827Z,1003.47
2022-08-31T09:05:38.839Z,1003.51
2022-08-31T09:06:40.574Z,1003.51
2022-08-31T09:07:39.797Z,1003.56
2022-08-31T09:08:38.800Z,1003.51
2022-08-31T09:09:38.781Z,1003.54
2022-08-31T09:10:38.799Z,1003.58
2022-08-31T09:11:38.762Z,1003.43
2022-08-31T09:12:38.758Z,1003.51
2022-08-31T09:13:38.751Z,1003.51
2022-08-31T09:14:38.734Z,1003.51
2022-08-31T09:15:38.838Z,1003.45
2022-08-31T09:16:38.740Z,1003.47
2022-08-31T09:17:38.716Z,1003.48
2022-08-31T09:18:38.717Z,1003.47
2022-08-31T09:19:38.708Z,1003.47
2022-08-31T09:20:38.727Z,1003.44
2022-08-31T09:21:38.681Z,1003.43
2022-08-31T09:22:38.682Z,1003.44
2022-08-31T09:23:38.695Z,1003.48
2022-08-31T09:24:38.672Z,1003.48
2022-08-31T09:25:38.687Z,1003.50
2022-08-31T09:26:38.641Z,1003.51
2022-08-31T09:27:38.640Z,1003.48
2022-08-31T09:28:38.626Z,1003.43
2022-08-31T09:29:38.617Z,1003.44
2022-08-31T09:30:38.645Z,1003.42
2022-08-31T09:31:38.691Z,1003.39
2022-08-31T09:32:38.604Z,1003.45
2022-08-31T09:33:38.586Z,1003.38
2022-08-31T09:34:38.592Z,1003.39
2022-08-31T09:35:38.618Z,1003.37
2022-08-31T09:36:38.560Z,1003.32
2022-08-31T09:37:38.558Z,1003.40
2022-08-31T09:38:38.546Z,1003.34
2022-08-31T09:39:38.537Z,1003.38
2022-08-31T09:40:38.584Z,1003.32
2022-08-31T09:41:38.548Z,1003.34
2022-08-31T09:42:38.517Z,1003.36
2022-08-31T09:43:38.544Z,1003.38
2022-08-31T09:44:38.516Z,1003.26
2022-08-31T09:45:42.106Z,1003.35
2022-08-31T09:46:39.481Z,1003.36
2022-08-31T09:47:38.477Z,1003.33
2022-08-31T09:48:38.471Z,1003.34
2022-08-31T09:49:38.467Z,1003.39
2022-08-31T09:50:38.502Z,1003.32
2022-08-31T09:51:38.473Z,1003.37
2022-08-31T09:52:38.436Z,1003.35
2022-08-31T09:53:38.433Z,1003.32
2022-08-31T09:54:40.206Z,1003.33
2022-08-31T09:55:38.412Z,1003.34
2022-08-31T09:56:38.429Z,1003.38
2022-08-31T09:57:38.405Z,1003.38
2022-08-31T09:58:38.389Z,1003.35
2022-08-31T09:59:38.861Z,1003.34
2022-08-31T10:00:38.380Z,1003.30
2022-08-31T10:01:38.522Z,1003.35
2022-08-31T10:02:38.384Z,1003.37
2022-08-31T10:03:38.351Z,1003.36
2022-08-31T10:04:38.388Z,1003.34
2022-08-31T10:05:38.336Z,1003.37
2022-08-31T10:06:38.356Z,1003.32
2022-08-31T10:07:38.313Z,1003.34
2022-08-31T10:08:38.313Z,1003.32
2022-08-31T10:09:38.298Z,1003.31
2022-08-31T10:10:38.324Z,1003.31
2022-08-31T10:11:38.290Z,1003.31
2022-08-31T10:12:38.276Z,1003.30
2022-08-31T10:13:38.273Z,1003.26
2022-08-31T10:14:38.263Z,1003.26
2022-08-31T10:15:38.366Z,1003.26
2022-08-31T10:16:38.250Z,1003.30
2022-08-31T10:17:38.238Z,1003.31
2022-08-31T10:18:38.237Z,1003.35
2022-08-31T10:19:38.222Z,1003.30
2022-08-31T10:20:38.250Z,1003.36
2022-08-31T10:21:38.213Z,1003.32
2022-08-31T10:22:38.197Z,1003.39
2022-08-31T10:23:38.180Z,1003.32
2022-08-31T10:24:38.271Z,1003.30
2022-08-31T10:25:38.203Z,1003.37
2022-08-31T10:26:38.168Z,1003.36
2022-08-31T10:27:38.159Z,1003.40
2022-08-31T10:28:38.191Z,1003.46
2022-08-31T10:29:38.141Z,1003.33
2022-08-31T10:30:38.280Z,1003.35
2022-08-31T10:31:38.178Z,1003.35
2022-08-31T10:32:38.115Z,1003.39
2022-08-31T10:33:38.128Z,1003.38
2022-08-31T10:34:38.094Z,1003.35
2022-08-31T10:35:38.095Z,1003.33
2022-08-31T10:36:38.111Z,1003.38
2022-08-31T10:37:38.074Z,1003.37
2022-08-31T10:38:38.079Z,1003.38
2022-08-31T10:39:38.064Z,1003.34
2022-08-31T10:40:38.096Z,1003.37
2022-08-31T10:41:38.080Z,1003.34
2022-08-31T10:42:38.054Z,1003.36
2022-08-31T10:43:38.037Z,1003.36
2022-08-31T10:44:38.025Z,1003.38
2022-08-31T10:45:38.018Z,1003.42
2022-08-31T10:46:38.080Z,1003.37
2022-08-31T10:47:38.004Z,1003.31
2022-08-31T10:48:38.001Z,1003.37
2022-08-31T10:49:37.977Z,1003.30
2022-08-31T10:50:38.014Z,1003.26
2022-08-31T10:51:37.965Z,1003.30
2022-08-31T10:52:37.950Z,1003.32
2022-08-31T10:53:40.036Z,1003.35
2022-08-31T10:54:37.952Z,1003.37
2022-08-31T10:55:37.960Z,1003.38
2022-08-31T10:56:37.925Z,1003.35
2022-08-31T10:57:37.918Z,1003.41
2022-08-31T10:58:37.903Z,1003.38
2022-08-31T10:59:37.897Z,1003.43
2022-08-31T11:00:37.917Z,1003.40
2022-08-31T11:01:37.958Z,1003.35
2022-08-31T11:02:37.876Z,1003.23
2022-08-31T11:03:37.918Z,1003.31
2022-08-31T11:04:37.900Z,1003.33
2022-08-31T11:05:37.885Z,1003.31
2022-08-31T11:06:37.844Z,1003.33
2022-08-31T11:07:37.836Z,1003.30
2022-08-31T11:08:37.826Z,1003.31
2022-08-31T11:09:37.820Z,1003.26
2022-08-31T11:10:37.837Z,1003.26
2022-08-31T11:11:42.463Z,1003.30
2022-08-31T11:12:38.799Z,1003.28
2022-08-31T11:13:37.785Z,1003.27
2022-08-31T11:14:37.777Z,1003.30
2022-08-31T11:15:37.866Z,1003.28
2022-08-31T11:16:37.777Z,1003.27
2022-08-31T11:17:37.763Z,1003.29
2022-08-31T11:18:37.751Z,1003.22
2022-08-31T11:19:37.746Z,1003.27
2022-08-31T11:20:37.804Z,1003.23
2022-08-31T11:21:37.759Z,1003.22
2022-08-31T11:22:37.768Z,1003.18
2022-08-31T11:23:42.246Z,1003.18
2022-08-31T11:24:38.705Z,1003.17
2022-08-31T11:25:37.753Z,1003.25
2022-08-31T11:26:37.683Z,1003.21
2022-08-31T11:27:37.679Z,1003.25
2022-08-31T11:28:37.670Z,1003.20
2022-08-31T11:29:37.662Z,1003.14
2022-08-31T11:30:41.847Z,1003.16
2022-08-31T11:31:38.768Z,1003.16
2022-08-31T11:32:37.641Z,1003.14
2022-08-31T11:33:37.654Z,1003.10
2022-08-31T11:34:37.619Z,1003.17
2022-08-31T11:35:42.172Z,1003.15
2022-08-31T11:36:38.603Z,1003.18
2022-08-31T11:37:37.597Z,1003.17
2022-08-31T11:38:37.591Z,1003.08
2022-08-31T11:39:37.591Z,1003.20
2022-08-31T11:40:37.739Z,1003.12
2022-08-31T11:41:37.572Z,1003.23
2022-08-31T11:42:37.558Z,1003.13
2022-08-31T11:43:37.553Z,1003.22
2022-08-31T11:44:37.542Z,1003.23
2022-08-31T11:45:37.790Z,1003.16
2022-08-31T11:46:37.567Z,1003.21
2022-08-31T11:47:37.531Z,1003.11
2022-08-31T11:48:37.508Z,1003.20
2022-08-31T11:49:37.498Z,1003.19
2022-08-31T11:50:37.566Z,1003.12
2022-08-31T11:51:41.035Z,1003.17
2022-08-31T11:52:38.479Z,1003.15
2022-08-31T11:53:37.468Z,1003.17
2022-08-31T11:54:37.455Z,1003.15
2022-08-31T11:55:37.475Z,1003.16
2022-08-31T11:56:37.438Z,1003.20
2022-08-31T11:57:37.964Z,1003.19
2022-08-31T11:58:38.425Z,1003.22
2022-08-31T11:59:37.432Z,1003.24
2022-08-31T12:00:37.444Z,1003.21
2022-08-31T12:01:37.406Z,1003.22
2022-08-31T12:02:37.428Z,1003.22
2022-08-31T12:03:37.389Z,1003.26
2022-08-31T12:04:37.373Z,1003.29
2022-08-31T12:05:37.586Z,1003.30